Burbank, Ohio
Current Conditions -  °F | °C
As of 12:56 AM on Sunday 26 Oct 2014 (Local Time) from KBJJ Reporting Station
Clear Clear  
Wind Chill: 55°   Ceiling: Unl
Heat Index: 55°   Visibility: 10mi
Dew Point: 31°   Wind: 10mph
Humidity: 40%   Direction: 310°NW
Pressure: 29.84"   Gusts: NA
Location:  40.99°N, 81.99°W
Report Text: KBJJ 260456Z AUTO 31009KT 10SM CLR 13/M01 A2984 RMK AO2 SLP101 T01281006 402280061 TSNO
Loading
Personal Weather Stations






























Interactive Weather Map
Tropical Storm Tracking
New forecast layout! Learn more

10-Day Weather Forecast

Advertisements
Track Severe Weather on mobile